Airfield :
LOGIN :

Register | Disclaimer

   EN    FR    IT 

 










Legend :    VFR   Marginal VFR   IFR   Intensive IFR   Very Intensive IFR
Visi :
Ceiling :
>= 8 km
>= 3000ft
5 to 8 km
1000 to 3000 ft
1500m to 5 km
500 to 1000 ft
800 to 1500m
200 to 500 ft
< 800m
< 200 ft
Symbols :   Thunderstorms  Fog  Heavy snow  Heavy precipitations  Wind > 20 kt
SIGMETs :     Misc.  Thunderstorms  Icing  Turbulence  Mountain Waves  Volcanic Ashes







- Airport Elevation : 117 ft
- IATA code : NWI
- Download approach charts


EGSH - Norwich

CURRENT METAR :
  • 281150Z 34008KT 280V040 9999 FEW018 SCT045 09/03 Q1016 NOSIG

EXPIRED METARs :
  • 281050Z 35012KT 320V030 9999 SCT018 BKN025 08/03 Q1016 NOSIG
  • 281020Z 36007KT 310V060 9999 FEW019 SCT044 08/04 Q1016 NOSIG
  • 280950Z 36008KT 300V050 9999 FEW019 SCT044 09/04 Q1016 NOSIG
  • 280920Z 33009KT 280V010 9999 FEW019 SCT044 08/03 Q1016 NOSIG
  • 280850Z 31007KT 270V350 9999 FEW015 SCT020 BKN028 08/04 Q1016 NOSIG

TAF TAF EGSH
Valid from the 28 at 12:00 until the 28 at 21:00 UTC


281104Z 2812/2821 34009KT 9999 FEW025 SCT035
ATIS : +44 1603 420 640
No reported NOTAMs for that airfield.



MET'MAP, your aeronautical weather chart ! - Copyright ORBIFLY December 2007 - Disclaimer

ORBIFLY MET'MAP TEAM :

Programming & Development : Alexandra Zaïnal
Concept & Development : Baudouin d'Aumeries
Co-Development & Prog : Marc-Olivier Méhu
Technical & hardware support : Manuel Goepfert

Contact : metmap@orbifly.com




SOURCES & CREDITS :

   NOAA